sensor_id;sensor_type;location;lat;lon;timestamp;P1;durP1;ratioP1;P2;durP2;ratioP2
28007;SDS011;15333;50.010;20.020;2022-12-28T00:00:55;17.88;;;7.57;;
28007;SDS011;15333;50.010;20.020;2022-12-28T00:04:07;13.65;;;6.93;;
28007;SDS011;15333;50.010;20.020;2022-12-28T00:07:08;16.75;;;7.25;;
28007;SDS011;15333;50.010;20.020;2022-12-28T00:10:08;20.55;;;8.88;;
28007;SDS011;15333;50.010;20.020;2022-12-28T00:13:09;15.30;;;7.82;;
28007;SDS011;15333;50.010;20.020;2022-12-28T00:16:12;18.73;;;8.10;;
28007;SDS011;15333;50.010;20.020;2022-12-28T00:19:26;14.65;;;7.07;;
28007;SDS011;15333;50.010;20.020;2022-12-28T00:22:26;15.98;;;7.72;;
28007;SDS011;15333;50.010;20.020;2022-12-28T00:25:27;15.20;;;7.22;;
28007;SDS011;15333;50.010;20.020;2022-12-28T00:28:28;18.00;;;7.40;;
28007;SDS011;15333;50.010;20.020;2022-12-28T00:31:29;16.52;;;7.20;;
28007;SDS011;15333;50.010;20.020;2022-12-28T00:34:31;16.67;;;7.57;;
28007;SDS011;15333;50.010;20.020;2022-12-28T00:37:33;19.63;;;8.63;;
28007;SDS011;15333;50.010;20.020;2022-12-28T00:40:34;16.42;;;8.32;;
28007;SDS011;15333;50.010;20.020;2022-12-28T00:43:35;24.27;;;10.00;;
28007;SDS011;15333;50.010;20.020;2022-12-28T00:46:36;19.88;;;9.07;;
28007;SDS011;15333;50.010;20.020;2022-12-28T00:49:37;21.98;;;9.63;;
28007;SDS011;15333;50.010;20.020;2022-12-28T00:52:38;24.80;;;9.10;;
28007;SDS011;15333;50.010;20.020;2022-12-28T00:55:40;20.65;;;9.55;;
28007;SDS011;15333;50.010;20.020;2022-12-28T00:58:41;18.58;;;8.90;;
28007;SDS011;15333;50.010;20.020;2022-12-28T01:01:42;19.60;;;8.73;;
28007;SDS011;15333;50.010;20.020;2022-12-28T01:04:43;19.92;;;8.43;;
28007;SDS011;15333;50.010;20.020;2022-12-28T01:07:44;20.02;;;8.75;;
28007;SDS011;15333;50.010;20.020;2022-12-28T01:10:44;20.33;;;8.88;;
28007;SDS011;15333;50.010;20.020;2022-12-28T01:13:46;20.50;;;8.98;;
28007;SDS011;15333;50.010;20.020;2022-12-28T01:16:47;16.67;;;7.90;;
28007;SDS011;15333;50.010;20.020;2022-12-28T01:19:48;21.17;;;8.93;;
28007;SDS011;15333;50.010;20.020;2022-12-28T01:22:49;19.73;;;7.95;;
28007;SDS011;15333;50.010;20.020;2022-12-28T01:25:50;15.23;;;7.85;;
28007;SDS011;15333;50.010;20.020;2022-12-28T01:28:51;16.75;;;8.15;;
28007;SDS011;15333;50.010;20.020;2022-12-28T01:31:52;19.52;;;7.65;;
28007;SDS011;15333;50.010;20.020;2022-12-28T01:34:53;17.45;;;8.05;;
28007;SDS011;15333;50.010;20.020;2022-12-28T01:37:55;16.10;;;8.23;;
28007;SDS011;15333;50.010;20.020;2022-12-28T01:40:56;15.43;;;8.10;;
28007;SDS011;15333;50.010;20.020;2022-12-28T01:47:02;17.85;;;8.73;;
28007;SDS011;15333;50.010;20.020;2022-12-28T01:50:10;21.15;;;8.50;;
28007;SDS011;15333;50.010;20.020;2022-12-28T01:53:14;19.90;;;9.10;;
28007;SDS011;15333;50.010;20.020;2022-12-28T01:56:17;18.63;;;9.55;;
28007;SDS011;15333;50.010;20.020;2022-12-28T01:59:18;15.48;;;7.88;;
28007;SDS011;15333;50.010;20.020;2022-12-28T02:02:25;22.75;;;9.00;;
28007;SDS011;15333;50.010;20.020;2022-12-28T02:05:30;17.58;;;8.10;;
28007;SDS011;15333;50.010;20.020;2022-12-28T02:08:38;21.20;;;8.05;;
28007;SDS011;15333;50.010;20.020;2022-12-28T02:11:45;17.10;;;7.78;;
28007;SDS011;15333;50.010;20.020;2022-12-28T02:14:47;19.30;;;7.75;;
28007;SDS011;15333;50.010;20.020;2022-12-28T02:17:48;15.90;;;7.40;;
28007;SDS011;15333;50.010;20.020;2022-12-28T02:21:13;16.00;;;6.90;;
28007;SDS011;15333;50.010;20.020;2022-12-28T02:28:16;18.15;;;6.88;;
28007;SDS011;15333;50.010;20.020;2022-12-28T02:35:23;12.98;;;5.78;;
28007;SDS011;15333;50.010;20.020;2022-12-28T02:38:34;12.10;;;6.40;;
28007;SDS011;15333;50.010;20.020;2022-12-28T02:41:41;14.52;;;6.32;;
28007;SDS011;15333;50.010;20.020;2022-12-28T02:44:44;12.60;;;6.05;;
28007;SDS011;15333;50.010;20.020;2022-12-28T02:48:05;14.35;;;6.43;;
28007;SDS011;15333;50.010;20.020;2022-12-28T03:09:00;12.20;;;5.97;;
28007;SDS011;15333;50.010;20.020;2022-12-28T03:12:07;11.25;;;5.80;;
28007;SDS011;15333;50.010;20.020;2022-12-28T03:15:20;11.75;;;4.95;;
28007;SDS011;15333;50.010;20.020;2022-12-28T03:18:32;9.48;;;4.78;;
28007;SDS011;15333;50.010;20.020;2022-12-28T03:21:54;9.25;;;4.60;;
28007;SDS011;15333;50.010;20.020;2022-12-28T03:25:15;9.85;;;4.30;;
28007;SDS011;15333;50.010;20.020;2022-12-28T03:28:40;11.10;;;4.60;;
28007;SDS011;15333;50.010;20.020;2022-12-28T03:32:02;13.23;;;4.72;;
28007;SDS011;15333;50.010;20.020;2022-12-28T03:35:05;10.68;;;4.45;;
28007;SDS011;15333;50.010;20.020;2022-12-28T03:38:06;8.75;;;4.22;;
28007;SDS011;15333;50.010;20.020;2022-12-28T03:41:13;10.23;;;4.03;;
28007;SDS011;15333;50.010;20.020;2022-12-28T03:44:25;13.07;;;4.25;;
28007;SDS011;15333;50.010;20.020;2022-12-28T03:47:33;7.53;;;3.92;;
28007;SDS011;15333;50.010;20.020;2022-12-28T03:50:37;7.57;;;3.92;;
28007;SDS011;15333;50.010;20.020;2022-12-28T03:53:43;10.80;;;4.07;;
28007;SDS011;15333;50.010;20.020;2022-12-28T03:56:49;9.68;;;3.15;;
28007;SDS011;15333;50.010;20.020;2022-12-28T03:59:55;12.80;;;4.32;;
28007;SDS011;15333;50.010;20.020;2022-12-28T04:02:57;8.48;;;4.03;;
28007;SDS011;15333;50.010;20.020;2022-12-28T04:05:58;9.90;;;4.20;;
28007;SDS011;15333;50.010;20.020;2022-12-28T04:08:59;8.43;;;3.80;;
28007;SDS011;15333;50.010;20.020;2022-12-28T04:12:03;8.30;;;3.90;;
28007;SDS011;15333;50.010;20.020;2022-12-28T04:15:23;6.93;;;3.60;;
28007;SDS011;15333;50.010;20.020;2022-12-28T04:18:25;8.95;;;4.38;;
28007;SDS011;15333;50.010;20.020;2022-12-28T04:21:26;9.57;;;4.57;;
28007;SDS011;15333;50.010;20.020;2022-12-28T04:24:28;9.27;;;3.78;;
28007;SDS011;15333;50.010;20.020;2022-12-28T04:27:29;12.65;;;3.60;;
28007;SDS011;15333;50.010;20.020;2022-12-28T04:30:36;8.25;;;3.35;;
28007;SDS011;15333;50.010;20.020;2022-12-28T04:33:38;7.82;;;3.55;;
28007;SDS011;15333;50.010;20.020;2022-12-28T04:36:39;10.23;;;3.80;;
28007;SDS011;15333;50.010;20.020;2022-12-28T04:39:45;7.90;;;3.63;;
28007;SDS011;15333;50.010;20.020;2022-12-28T04:42:46;8.65;;;3.40;;
28007;SDS011;15333;50.010;20.020;2022-12-28T04:45:54;9.02;;;2.92;;
28007;SDS011;15333;50.010;20.020;2022-12-28T04:48:57;10.05;;;3.78;;
28007;SDS011;15333;50.010;20.020;2022-12-28T04:51:57;6.03;;;3.40;;
28007;SDS011;15333;50.010;20.020;2022-12-28T04:54:58;7.97;;;3.20;;
28007;SDS011;15333;50.010;20.020;2022-12-28T04:57:59;6.97;;;3.58;;
28007;SDS011;15333;50.010;20.020;2022-12-28T05:04:08;8.00;;;3.63;;
28007;SDS011;15333;50.010;20.020;2022-12-28T05:07:10;7.38;;;3.35;;
28007;SDS011;15333;50.010;20.020;2022-12-28T05:10:10;7.15;;;3.08;;
28007;SDS011;15333;50.010;20.020;2022-12-28T05:13:11;9.23;;;3.35;;
28007;SDS011;15333;50.010;20.020;2022-12-28T05:16:13;8.38;;;3.08;;
28007;SDS011;15333;50.010;20.020;2022-12-28T05:19:16;7.05;;;2.88;;
28007;SDS011;15333;50.010;20.020;2022-12-28T05:22:17;8.70;;;3.28;;
28007;SDS011;15333;50.010;20.020;2022-12-28T05:25:18;7.53;;;3.08;;
28007;SDS011;15333;50.010;20.020;2022-12-28T05:28:19;6.78;;;2.90;;
28007;SDS011;15333;50.010;20.020;2022-12-28T05:31:21;9.10;;;4.15;;
28007;SDS011;15333;50.010;20.020;2022-12-28T05:34:22;11.30;;;4.38;;
28007;SDS011;15333;50.010;20.020;2022-12-28T05:37:23;9.73;;;4.25;;
28007;SDS011;15333;50.010;20.020;2022-12-28T05:40:24;12.98;;;4.47;;
28007;SDS011;15333;50.010;20.020;2022-12-28T05:43:25;10.00;;;4.25;;
28007;SDS011;15333;50.010;20.020;2022-12-28T05:46:30;9.20;;;4.05;;
28007;SDS011;15333;50.010;20.020;2022-12-28T05:49:33;9.90;;;4.72;;
28007;SDS011;15333;50.010;20.020;2022-12-28T05:52:33;7.63;;;4.35;;
28007;SDS011;15333;50.010;20.020;2022-12-28T05:55:36;9.57;;;4.63;;
28007;SDS011;15333;50.010;20.020;2022-12-28T05:58:37;10.48;;;4.80;;
28007;SDS011;15333;50.010;20.020;2022-12-28T06:01:38;8.90;;;5.18;;
28007;SDS011;15333;50.010;20.020;2022-12-28T06:04:40;8.55;;;4.65;;
28007;SDS011;15333;50.010;20.020;2022-12-28T06:07:41;11.60;;;4.80;;
28007;SDS011;15333;50.010;20.020;2022-12-28T06:10:42;13.55;;;5.07;;
28007;SDS011;15333;50.010;20.020;2022-12-28T06:13:43;16.95;;;5.22;;
28007;SDS011;15333;50.010;20.020;2022-12-28T06:16:45;14.55;;;5.28;;
28007;SDS011;15333;50.010;20.020;2022-12-28T06:19:46;12.25;;;5.97;;
28007;SDS011;15333;50.010;20.020;2022-12-28T06:22:47;13.88;;;5.93;;
28007;SDS011;15333;50.010;20.020;2022-12-28T06:25:48;13.90;;;5.35;;
28007;SDS011;15333;50.010;20.020;2022-12-28T06:28:49;14.82;;;5.65;;
28007;SDS011;15333;50.010;20.020;2022-12-28T06:31:50;12.77;;;5.53;;
28007;SDS011;15333;50.010;20.020;2022-12-28T06:34:53;11.95;;;6.10;;
28007;SDS011;15333;50.010;20.020;2022-12-28T06:37:54;15.38;;;6.57;;
28007;SDS011;15333;50.010;20.020;2022-12-28T06:40:55;12.27;;;5.60;;
28007;SDS011;15333;50.010;20.020;2022-12-28T06:44:04;11.95;;;6.07;;
28007;SDS011;15333;50.010;20.020;2022-12-28T06:47:06;13.88;;;6.13;;
28007;SDS011;15333;50.010;20.020;2022-12-28T06:50:07;15.90;;;6.75;;
28007;SDS011;15333;50.010;20.020;2022-12-28T06:53:08;14.45;;;6.47;;
28007;SDS011;15333;50.010;20.020;2022-12-28T06:56:14;15.77;;;7.45;;
28007;SDS011;15333;50.010;20.020;2022-12-28T06:59:16;13.88;;;6.13;;
28007;SDS011;15333;50.010;20.020;2022-12-28T07:02:17;19.33;;;5.80;;
28007;SDS011;15333;50.010;20.020;2022-12-28T07:05:19;11.75;;;5.57;;
28007;SDS011;15333;50.010;20.020;2022-12-28T07:08:20;19.08;;;5.40;;
28007;SDS011;15333;50.010;20.020;2022-12-28T07:11:20;14.27;;;5.07;;
28007;SDS011;15333;50.010;20.020;2022-12-28T07:14:22;12.63;;;5.35;;
28007;SDS011;15333;50.010;20.020;2022-12-28T07:17:23;10.98;;;5.50;;
28007;SDS011;15333;50.010;20.020;2022-12-28T07:20:24;12.10;;;5.25;;
28007;SDS011;15333;50.010;20.020;2022-12-28T07:23:24;12.30;;;4.97;;
28007;SDS011;15333;50.010;20.020;2022-12-28T07:26:30;11.57;;;5.53;;
28007;SDS011;15333;50.010;20.020;2022-12-28T07:29:32;13.73;;;5.60;;
28007;SDS011;15333;50.010;20.020;2022-12-28T07:32:36;14.00;;;5.13;;
28007;SDS011;15333;50.010;20.020;2022-12-28T07:35:37;14.63;;;6.78;;
28007;SDS011;15333;50.010;20.020;2022-12-28T07:38:38;10.73;;;4.80;;
28007;SDS011;15333;50.010;20.020;2022-12-28T07:41:39;16.83;;;4.93;;
28007;SDS011;15333;50.010;20.020;2022-12-28T07:44:40;11.20;;;5.18;;
28007;SDS011;15333;50.010;20.020;2022-12-28T07:47:41;12.60;;;5.47;;
28007;SDS011;15333;50.010;20.020;2022-12-28T07:50:42;9.10;;;5.18;;
28007;SDS011;15333;50.010;20.020;2022-12-28T07:53:43;19.92;;;5.97;;
28007;SDS011;15333;50.010;20.020;2022-12-28T07:56:46;9.88;;;5.10;;
28007;SDS011;15333;50.010;20.020;2022-12-28T07:59:47;11.73;;;5.30;;
28007;SDS011;15333;50.010;20.020;2022-12-28T08:02:48;10.32;;;5.18;;
28007;SDS011;15333;50.010;20.020;2022-12-28T08:05:49;12.65;;;5.30;;
28007;SDS011;15333;50.010;20.020;2022-12-28T08:08:54;15.10;;;5.38;;
28007;SDS011;15333;50.010;20.020;2022-12-28T08:11:58;13.63;;;4.93;;
28007;SDS011;15333;50.010;20.020;2022-12-28T08:14:59;10.07;;;4.85;;
28007;SDS011;15333;50.010;20.020;2022-12-28T08:18:00;11.40;;;4.47;;
28007;SDS011;15333;50.010;20.020;2022-12-28T08:21:02;9.15;;;4.40;;
28007;SDS011;15333;50.010;20.020;2022-12-28T08:24:07;11.52;;;5.22;;
28007;SDS011;15333;50.010;20.020;2022-12-28T08:27:09;13.63;;;5.90;;
28007;SDS011;15333;50.010;20.020;2022-12-28T08:30:10;14.85;;;5.50;;
28007;SDS011;15333;50.010;20.020;2022-12-28T08:33:12;12.57;;;5.60;;
28007;SDS011;15333;50.010;20.020;2022-12-28T08:36:12;12.88;;;5.53;;
28007;SDS011;15333;50.010;20.020;2022-12-28T08:39:14;11.63;;;5.00;;
28007;SDS011;15333;50.010;20.020;2022-12-28T08:42:14;13.00;;;4.78;;
28007;SDS011;15333;50.010;20.020;2022-12-28T08:45:16;11.00;;;5.25;;
28007;SDS011;15333;50.010;20.020;2022-12-28T08:48:16;11.88;;;5.32;;
28007;SDS011;15333;50.010;20.020;2022-12-28T08:51:22;12.77;;;5.85;;
28007;SDS011;15333;50.010;20.020;2022-12-28T08:54:27;10.98;;;5.50;;
28007;SDS011;15333;50.010;20.020;2022-12-28T08:57:28;16.30;;;5.60;;
28007;SDS011;15333;50.010;20.020;2022-12-28T09:00:29;17.98;;;5.80;;
28007;SDS011;15333;50.010;20.020;2022-12-28T09:03:30;12.32;;;5.30;;
28007;SDS011;15333;50.010;20.020;2022-12-28T09:06:32;15.90;;;5.97;;
28007;SDS011;15333;50.010;20.020;2022-12-28T09:09:34;11.88;;;5.78;;
28007;SDS011;15333;50.010;20.020;2022-12-28T09:12:35;11.68;;;5.28;;
28007;SDS011;15333;50.010;20.020;2022-12-28T09:15:36;11.88;;;4.97;;
28007;SDS011;15333;50.010;20.020;2022-12-28T09:18:37;15.98;;;5.05;;
28007;SDS011;15333;50.010;20.020;2022-12-28T09:21:40;12.00;;;4.65;;
28007;SDS011;15333;50.010;20.020;2022-12-28T09:24:41;13.48;;;5.32;;
28007;SDS011;15333;50.010;20.020;2022-12-28T09:27:42;11.20;;;5.10;;
28007;SDS011;15333;50.010;20.020;2022-12-28T09:30:47;9.20;;;5.00;;
28007;SDS011;15333;50.010;20.020;2022-12-28T09:33:49;9.65;;;4.95;;
28007;SDS011;15333;50.010;20.020;2022-12-28T09:37:00;10.57;;;4.93;;
28007;SDS011;15333;50.010;20.020;2022-12-28T09:40:01;12.05;;;5.05;;
28007;SDS011;15333;50.010;20.020;2022-12-28T09:43:07;14.10;;;5.60;;
28007;SDS011;15333;50.010;20.020;2022-12-28T09:46:11;11.63;;;5.40;;
28007;SDS011;15333;50.010;20.020;2022-12-28T09:49:23;12.40;;;5.78;;
28007;SDS011;15333;50.010;20.020;2022-12-28T09:56:09;11.48;;;5.13;;
28007;SDS011;15333;50.010;20.020;2022-12-28T09:59:32;9.85;;;4.70;;
28007;SDS011;15333;50.010;20.020;2022-12-28T10:02:35;13.30;;;4.80;;
28007;SDS011;15333;50.010;20.020;2022-12-28T10:05:39;12.68;;;5.15;;
28007;SDS011;15333;50.010;20.020;2022-12-28T10:08:47;13.27;;;4.90;;
28007;SDS011;15333;50.010;20.020;2022-12-28T10:11:51;7.45;;;3.53;;
28007;SDS011;15333;50.010;20.020;2022-12-28T10:14:52;10.75;;;4.25;;
28007;SDS011;15333;50.010;20.020;2022-12-28T10:17:54;15.10;;;3.63;;
28007;SDS011;15333;50.010;20.020;2022-12-28T10:20:54;9.75;;;4.35;;
28007;SDS011;15333;50.010;20.020;2022-12-28T10:23:56;12.68;;;4.63;;
28007;SDS011;15333;50.010;20.020;2022-12-28T10:26:59;8.85;;;4.72;;
28007;SDS011;15333;50.010;20.020;2022-12-28T10:30:05;9.95;;;5.00;;
28007;SDS011;15333;50.010;20.020;2022-12-28T10:33:17;23.15;;;5.25;;
28007;SDS011;15333;50.010;20.020;2022-12-28T10:36:19;12.80;;;4.80;;
28007;SDS011;15333;50.010;20.020;2022-12-28T10:39:21;13.70;;;5.82;;
28007;SDS011;15333;50.010;20.020;2022-12-28T10:42:30;9.80;;;4.70;;
28007;SDS011;15333;50.010;20.020;2022-12-28T10:45:39;15.23;;;5.10;;
28007;SDS011;15333;50.010;20.020;2022-12-28T10:48:46;12.60;;;4.88;;
28007;SDS011;15333;50.010;20.020;2022-12-28T10:55:01;12.43;;;5.45;;
28007;SDS011;15333;50.010;20.020;2022-12-28T10:58:19;10.32;;;4.65;;
28007;SDS011;15333;50.010;20.020;2022-12-28T11:01:24;13.73;;;5.95;;
28007;SDS011;15333;50.010;20.020;2022-12-28T11:04:26;26.83;;;5.88;;
28007;SDS011;15333;50.010;20.020;2022-12-28T11:07:28;10.10;;;4.97;;
28007;SDS011;15333;50.010;20.020;2022-12-28T11:10:34;13.43;;;5.85;;
28007;SDS011;15333;50.010;20.020;2022-12-28T11:13:37;15.40;;;5.13;;
28007;SDS011;15333;50.010;20.020;2022-12-28T11:16:39;11.40;;;5.25;;
28007;SDS011;15333;50.010;20.020;2022-12-28T11:19:41;11.82;;;5.15;;
28007;SDS011;15333;50.010;20.020;2022-12-28T11:22:42;11.45;;;5.45;;
28007;SDS011;15333;50.010;20.020;2022-12-28T11:25:44;11.52;;;5.18;;
28007;SDS011;15333;50.010;20.020;2022-12-28T11:28:47;14.50;;;6.35;;
28007;SDS011;15333;50.010;20.020;2022-12-28T11:34:52;13.23;;;6.22;;
28007;SDS011;15333;50.010;20.020;2022-12-28T11:37:59;12.60;;;6.22;;
28007;SDS011;15333;50.010;20.020;2022-12-28T11:41:01;15.57;;;6.05;;
28007;SDS011;15333;50.010;20.020;2022-12-28T11:44:02;12.70;;;6.28;;
28007;SDS011;15333;50.010;20.020;2022-12-28T11:47:06;12.23;;;5.78;;
28007;SDS011;15333;50.010;20.020;2022-12-28T11:59:44;12.37;;;6.20;;
28007;SDS011;15333;50.010;20.020;2022-12-28T12:02:49;12.75;;;6.70;;
28007;SDS011;15333;50.010;20.020;2022-12-28T12:05:52;17.58;;;7.32;;
28007;SDS011;15333;50.010;20.020;2022-12-28T12:08:53;16.85;;;6.43;;
28007;SDS011;15333;50.010;20.020;2022-12-28T12:11:55;19.15;;;6.88;;
28007;SDS011;15333;50.010;20.020;2022-12-28T12:15:17;12.55;;;6.22;;
28007;SDS011;15333;50.010;20.020;2022-12-28T12:18:21;16.67;;;6.90;;
28007;SDS011;15333;50.010;20.020;2022-12-28T12:24:54;16.88;;;7.15;;
28007;SDS011;15333;50.010;20.020;2022-12-28T12:28:06;18.00;;;7.88;;
28007;SDS011;15333;50.010;20.020;2022-12-28T12:31:19;16.73;;;7.47;;
28007;SDS011;15333;50.010;20.020;2022-12-28T12:34:37;15.52;;;6.78;;
28007;SDS011;15333;50.010;20.020;2022-12-28T12:40:52;13.55;;;5.93;;
28007;SDS011;15333;50.010;20.020;2022-12-28T12:58:07;14.25;;;5.72;;
28007;SDS011;15333;50.010;20.020;2022-12-28T13:04:26;10.45;;;4.93;;
28007;SDS011;15333;50.010;20.020;2022-12-28T13:07:31;8.07;;;3.97;;
28007;SDS011;15333;50.010;20.020;2022-12-28T13:10:34;9.07;;;4.57;;
28007;SDS011;15333;50.010;20.020;2022-12-28T13:13:38;6.60;;;3.92;;
28007;SDS011;15333;50.010;20.020;2022-12-28T13:16:40;7.82;;;4.22;;
28007;SDS011;15333;50.010;20.020;2022-12-28T13:19:48;9.52;;;4.30;;
28007;SDS011;15333;50.010;20.020;2022-12-28T13:22:48;8.55;;;4.40;;
28007;SDS011;15333;50.010;20.020;2022-12-28T13:25:59;11.10;;;4.53;;
28007;SDS011;15333;50.010;20.020;2022-12-28T13:29:02;8.35;;;4.32;;
28007;SDS011;15333;50.010;20.020;2022-12-28T13:32:24;9.85;;;4.53;;
28007;SDS011;15333;50.010;20.020;2022-12-28T13:35:29;9.07;;;5.10;;
28007;SDS011;15333;50.010;20.020;2022-12-28T13:38:32;12.07;;;4.80;;
28007;SDS011;15333;50.010;20.020;2022-12-28T13:41:33;9.55;;;4.82;;
28007;SDS011;15333;50.010;20.020;2022-12-28T13:44:45;12.95;;;5.15;;
28007;SDS011;15333;50.010;20.020;2022-12-28T13:47:50;8.60;;;3.70;;
28007;SDS011;15333;50.010;20.020;2022-12-28T13:50:53;11.23;;;6.15;;
28007;SDS011;15333;50.010;20.020;2022-12-28T13:53:55;9.07;;;4.68;;
28007;SDS011;15333;50.010;20.020;2022-12-28T13:56:59;8.20;;;3.30;;
28007;SDS011;15333;50.010;20.020;2022-12-28T14:00:00;10.38;;;3.33;;
28007;SDS011;15333;50.010;20.020;2022-12-28T14:03:02;8.02;;;2.88;;
28007;SDS011;15333;50.010;20.020;2022-12-28T14:06:09;6.90;;;3.28;;
28007;SDS011;15333;50.010;20.020;2022-12-28T14:09:14;7.78;;;2.90;;
28007;SDS011;15333;50.010;20.020;2022-12-28T14:12:15;3.47;;;2.22;;
28007;SDS011;15333;50.010;20.020;2022-12-28T14:15:18;5.57;;;2.40;;
28007;SDS011;15333;50.010;20.020;2022-12-28T14:18:19;12.82;;;3.50;;
28007;SDS011;15333;50.010;20.020;2022-12-28T14:21:30;5.70;;;3.35;;
28007;SDS011;15333;50.010;20.020;2022-12-28T14:25:00;8.37;;;3.70;;
28007;SDS011;15333;50.010;20.020;2022-12-28T14:28:06;12.98;;;3.67;;
28007;SDS011;15333;50.010;20.020;2022-12-28T14:31:08;11.40;;;4.50;;
28007;SDS011;15333;50.010;20.020;2022-12-28T14:34:21;12.38;;;5.28;;
28007;SDS011;15333;50.010;20.020;2022-12-28T14:37:25;12.85;;;4.72;;
28007;SDS011;15333;50.010;20.020;2022-12-28T14:40:33;13.85;;;5.72;;
28007;SDS011;15333;50.010;20.020;2022-12-28T14:43:34;10.60;;;5.38;;
28007;SDS011;15333;50.010;20.020;2022-12-28T14:46:37;13.23;;;5.90;;
28007;SDS011;15333;50.010;20.020;2022-12-28T14:49:39;10.35;;;5.05;;
28007;SDS011;15333;50.010;20.020;2022-12-28T14:52:45;10.55;;;5.05;;
28007;SDS011;15333;50.010;20.020;2022-12-28T14:59:04;13.50;;;6.57;;
28007;SDS011;15333;50.010;20.020;2022-12-28T15:06:06;14.52;;;6.47;;
28007;SDS011;15333;50.010;20.020;2022-12-28T15:09:02;16.85;;;6.60;;
28007;SDS011;15333;50.010;20.020;2022-12-28T15:15:07;18.65;;;6.78;;
28007;SDS011;15333;50.010;20.020;2022-12-28T15:18:09;14.52;;;6.97;;
28007;SDS011;15333;50.010;20.020;2022-12-28T15:21:14;19.45;;;7.15;;
28007;SDS011;15333;50.010;20.020;2022-12-28T15:24:17;16.35;;;7.50;;
28007;SDS011;15333;50.010;20.020;2022-12-28T15:27:18;18.77;;;6.90;;
28007;SDS011;15333;50.010;20.020;2022-12-28T15:30:19;18.45;;;7.47;;
28007;SDS011;15333;50.010;20.020;2022-12-28T15:33:21;20.10;;;8.35;;
28007;SDS011;15333;50.010;20.020;2022-12-28T15:36:22;22.40;;;7.93;;
28007;SDS011;15333;50.010;20.020;2022-12-28T15:39:24;14.45;;;7.47;;
28007;SDS011;15333;50.010;20.020;2022-12-28T15:42:25;19.20;;;8.60;;
28007;SDS011;15333;50.010;20.020;2022-12-28T15:45:26;20.27;;;8.98;;
28007;SDS011;15333;50.010;20.020;2022-12-28T15:48:30;18.42;;;8.70;;
28007;SDS011;15333;50.010;20.020;2022-12-28T15:51:31;17.98;;;8.68;;
28007;SDS011;15333;50.010;20.020;2022-12-28T15:54:32;21.88;;;8.65;;
28007;SDS011;15333;50.010;20.020;2022-12-28T15:57:33;21.08;;;8.63;;
28007;SDS011;15333;50.010;20.020;2022-12-28T16:00:34;23.35;;;9.18;;
28007;SDS011;15333;50.010;20.020;2022-12-28T16:03:35;17.40;;;9.02;;
28007;SDS011;15333;50.010;20.020;2022-12-28T16:06:36;21.60;;;10.80;;
28007;SDS011;15333;50.010;20.020;2022-12-28T16:09:37;23.50;;;10.38;;
28007;SDS011;15333;50.010;20.020;2022-12-28T16:12:38;20.52;;;9.75;;
28007;SDS011;15333;50.010;20.020;2022-12-28T16:15:39;19.42;;;9.95;;
28007;SDS011;15333;50.010;20.020;2022-12-28T16:18:40;24.25;;;12.20;;
28007;SDS011;15333;50.010;20.020;2022-12-28T16:21:41;40.17;;;19.23;;
28007;SDS011;15333;50.010;20.020;2022-12-28T16:24:43;47.53;;;21.17;;
28007;SDS011;15333;50.010;20.020;2022-12-28T16:27:44;51.92;;;23.70;;
28007;SDS011;15333;50.010;20.020;2022-12-28T16:30:46;57.88;;;27.42;;
28007;SDS011;15333;50.010;20.020;2022-12-28T16:33:52;62.22;;;29.25;;
28007;SDS011;15333;50.010;20.020;2022-12-28T16:36:57;69.00;;;31.33;;
28007;SDS011;15333;50.010;20.020;2022-12-28T16:39:59;87.55;;;39.13;;
28007;SDS011;15333;50.010;20.020;2022-12-28T16:43:03;95.05;;;43.40;;
28007;SDS011;15333;50.010;20.020;2022-12-28T16:46:06;93.60;;;39.85;;
28007;SDS011;15333;50.010;20.020;2022-12-28T16:49:08;84.18;;;35.85;;
28007;SDS011;15333;50.010;20.020;2022-12-28T16:52:12;63.67;;;28.35;;
28007;SDS011;15333;50.010;20.020;2022-12-28T16:55:13;56.92;;;24.67;;
28007;SDS011;15333;50.010;20.020;2022-12-28T16:58:13;45.40;;;21.25;;
28007;SDS011;15333;50.010;20.020;2022-12-28T17:01:15;45.58;;;20.45;;
28007;SDS011;15333;50.010;20.020;2022-12-28T17:04:16;41.78;;;20.27;;
28007;SDS011;15333;50.010;20.020;2022-12-28T17:07:18;45.15;;;19.15;;
28007;SDS011;15333;50.010;20.020;2022-12-28T17:10:19;45.15;;;17.90;;
28007;SDS011;15333;50.010;20.020;2022-12-28T17:13:20;37.00;;;16.58;;
28007;SDS011;15333;50.010;20.020;2022-12-28T17:16:21;37.22;;;15.70;;
28007;SDS011;15333;50.010;20.020;2022-12-28T17:19:22;31.65;;;15.18;;
28007;SDS011;15333;50.010;20.020;2022-12-28T17:22:23;26.73;;;12.68;;
28007;SDS011;15333;50.010;20.020;2022-12-28T17:25:24;26.98;;;12.60;;
28007;SDS011;15333;50.010;20.020;2022-12-28T17:28:25;26.45;;;11.25;;
28007;SDS011;15333;50.010;20.020;2022-12-28T17:31:26;30.50;;;12.65;;
28007;SDS011;15333;50.010;20.020;2022-12-28T17:34:27;27.85;;;12.27;;
28007;SDS011;15333;50.010;20.020;2022-12-28T17:37:28;23.02;;;11.43;;
28007;SDS011;15333;50.010;20.020;2022-12-28T17:40:29;28.98;;;13.82;;
28007;SDS011;15333;50.010;20.020;2022-12-28T17:43:30;25.48;;;11.52;;
28007;SDS011;15333;50.010;20.020;2022-12-28T17:46:31;27.13;;;11.52;;
28007;SDS011;15333;50.010;20.020;2022-12-28T17:49:32;24.70;;;11.63;;
28007;SDS011;15333;50.010;20.020;2022-12-28T17:52:33;26.33;;;11.63;;
28007;SDS011;15333;50.010;20.020;2022-12-28T17:55:35;24.95;;;11.65;;
28007;SDS011;15333;50.010;20.020;2022-12-28T17:58:36;33.03;;;11.00;;
28007;SDS011;15333;50.010;20.020;2022-12-28T18:01:37;25.17;;;10.23;;
28007;SDS011;15333;50.010;20.020;2022-12-28T18:04:38;24.98;;;10.32;;
28007;SDS011;15333;50.010;20.020;2022-12-28T18:07:40;20.20;;;10.43;;
28007;SDS011;15333;50.010;20.020;2022-12-28T18:10:41;29.95;;;12.02;;
28007;SDS011;15333;50.010;20.020;2022-12-28T18:13:42;25.60;;;10.88;;
28007;SDS011;15333;50.010;20.020;2022-12-28T18:16:45;25.00;;;11.48;;
28007;SDS011;15333;50.010;20.020;2022-12-28T18:19:47;31.77;;;11.05;;
28007;SDS011;15333;50.010;20.020;2022-12-28T18:22:48;28.23;;;11.52;;
28007;SDS011;15333;50.010;20.020;2022-12-28T18:25:49;24.35;;;11.38;;
28007;SDS011;15333;50.010;20.020;2022-12-28T18:28:50;29.95;;;11.95;;
28007;SDS011;15333;50.010;20.020;2022-12-28T18:31:52;23.23;;;10.13;;
28007;SDS011;15333;50.010;20.020;2022-12-28T18:34:53;21.10;;;10.45;;
28007;SDS011;15333;50.010;20.020;2022-12-28T18:37:54;25.05;;;10.85;;
28007;SDS011;15333;50.010;20.020;2022-12-28T18:40:55;23.15;;;10.48;;
28007;SDS011;15333;50.010;20.020;2022-12-28T18:43:57;20.75;;;10.32;;
28007;SDS011;15333;50.010;20.020;2022-12-28T18:47:00;24.17;;;10.35;;
28007;SDS011;15333;50.010;20.020;2022-12-28T18:50:01;26.38;;;10.98;;
28007;SDS011;15333;50.010;20.020;2022-12-28T18:53:03;22.25;;;10.18;;
28007;SDS011;15333;50.010;20.020;2022-12-28T18:56:08;25.98;;;11.10;;
28007;SDS011;15333;50.010;20.020;2022-12-28T18:59:11;24.02;;;10.27;;
28007;SDS011;15333;50.010;20.020;2022-12-28T19:02:12;24.33;;;10.68;;
28007;SDS011;15333;50.010;20.020;2022-12-28T19:05:13;26.13;;;12.00;;
28007;SDS011;15333;50.010;20.020;2022-12-28T19:08:14;25.80;;;12.00;;
28007;SDS011;15333;50.010;20.020;2022-12-28T19:11:15;25.60;;;11.48;;
28007;SDS011;15333;50.010;20.020;2022-12-28T19:14:16;32.45;;;13.75;;
28007;SDS011;15333;50.010;20.020;2022-12-28T19:17:17;28.73;;;12.90;;